Time;durP1;ratioP1;P1;durP2;ratioP2;P2;SDS_P1;SDS_P2;PMS_P1;PMS_P2;Temp;Humidity;BMP_temperature;BMP_pressure;BME280_temperature;BME280_humidity;BME280_pressure;Samples;Min_cycle;Max_cycle;Signal;HPM_P1;HPM_P2
2023/06/28 00:00:15;;;;;;;10.68;4.43;;;14.60;99.90;;;;;;5080147;28;20048;-57
2023/06/28 00:02:40;;;;;;;10.82;4.40;;;14.60;99.90;;;;;;5078979;28;20838;-54
2023/06/28 00:05:10;;;;;;;14.25;4.97;;;14.60;99.90;;;;;;5079440;28;20068;-57
2023/06/28 00:07:35;;;;;;;15.02;4.60;;;14.50;99.90;;;;;;5079982;28;20040;-56
2023/06/28 00:10:02;;;;;;;12.13;4.93;;;14.60;99.90;;;;;;5079049;28;20080;-57
2023/06/28 00:12:32;;;;;;;11.55;5.05;;;14.50;99.90;;;;;;5080308;28;20063;-57
2023/06/28 00:14:58;;;;;;;13.13;4.65;;;14.60;99.90;;;;;;5079473;28;20051;-57
2023/06/28 00:17:28;;;;;;;12.82;4.93;;;14.70;99.90;;;;;;5079629;28;20040;-55
2023/06/28 00:19:58;;;;;;;13.40;5.13;;;14.60;99.90;;;;;;5080007;28;20043;-56
2023/06/28 00:22:29;;;;;;;14.68;5.13;;;14.50;99.90;;;;;;5079200;28;20052;-57
2023/06/28 00:24:59;;;;;;;12.95;5.00;;;14.50;99.90;;;;;;5079975;28;20047;-57
2023/06/28 00:27:25;;;;;;;11.82;4.63;;;14.60;99.90;;;;;;5078644;28;20051;-57
2023/06/28 00:29:51;;;;;;;11.90;5.00;;;14.50;99.90;;;;;;5080182;28;20041;-57
2023/06/28 00:32:17;;;;;;;10.52;4.80;;;14.50;99.90;;;;;;5079324;28;20143;-56
2023/06/28 00:34:43;;;;;;;10.63;4.75;;;14.50;99.90;;;;;;5079779;28;20119;-57
2023/06/28 00:37:08;;;;;;;12.48;5.28;;;14.50;99.90;;;;;;5079427;28;20048;-56
2023/06/28 00:39:34;;;;;;;14.73;5.30;;;14.30;99.90;;;;;;5078813;28;20075;-57
2023/06/28 00:42:01;;;;;;;13.55;4.57;;;14.30;99.90;;;;;;5079762;28;20506;-57
2023/06/28 00:44:27;;;;;;;12.95;4.40;;;14.40;99.90;;;;;;5078608;28;20043;-57
2023/06/28 00:46:54;;;;;;;12.65;4.38;;;14.50;99.90;;;;;;5079646;28;20040;-56
2023/06/28 00:49:20;;;;;;;12.13;4.53;;;14.60;99.90;;;;;;5077359;28;20041;-57
2023/06/28 00:51:46;;;;;;;10.45;4.63;;;14.70;99.90;;;;;;5079391;28;20045;-57
2023/06/28 00:54:12;;;;;;;13.43;5.10;;;14.80;99.90;;;;;;5079468;28;20040;-57
2023/06/28 00:56:39;;;;;;;11.15;4.93;;;14.70;99.90;;;;;;5077394;28;20091;-57
2023/06/28 00:59:05;;;;;;;10.57;4.20;;;14.80;99.90;;;;;;5078758;28;20116;-57
2023/06/28 01:01:31;;;;;;;10.20;4.40;;;14.80;99.90;;;;;;5078270;28;20055;-57
2023/06/28 01:04:00;;;;;;;11.45;4.05;;;14.80;99.90;;;;;;5079556;28;20058;-57
2023/06/28 01:06:31;;;;;;;11.88;4.53;;;14.70;99.90;;;;;;5078537;28;20063;-57
2023/06/28 01:08:57;;;;;;;11.53;4.70;;;14.90;99.90;;;;;;5079279;28;20070;-57
2023/06/28 01:11:24;;;;;;;11.00;4.60;;;14.80;99.90;;;;;;5079287;28;20287;-57
2023/06/28 01:13:50;;;;;;;10.50;4.53;;;14.80;99.90;;;;;;5078050;28;20480;-57
2023/06/28 01:16:16;;;;;;;11.57;4.55;;;14.90;99.90;;;;;;5079484;28;20090;-57
2023/06/28 01:18:42;;;;;;;13.52;4.53;;;14.90;99.90;;;;;;5078004;28;20056;-57
2023/06/28 01:21:10;;;;;;;10.25;3.92;;;14.90;99.90;;;;;;5077347;28;20056;-56
2023/06/28 01:23:37;;;;;;;10.93;4.68;;;14.90;99.90;;;;;;5077203;28;20094;-57
2023/06/28 01:26:03;;;;;;;13.98;4.50;;;14.90;99.90;;;;;;5079032;28;20036;-57
2023/06/28 01:28:32;;;;;;;14.23;4.78;;;14.90;99.90;;;;;;5079037;28;20036;-56
2023/06/28 01:30:59;;;;;;;9.18;4.13;;;14.90;99.90;;;;;;5078237;28;20373;-57
2023/06/28 01:33:26;;;;;;;13.63;4.05;;;15.00;99.90;;;;;;5079295;28;20072;-57
2023/06/28 01:35:52;;;;;;;10.32;4.60;;;15.00;99.90;;;;;;5077880;28;20075;-57
2023/06/28 01:38:18;;;;;;;8.98;4.22;;;15.00;99.90;;;;;;5078729;28;20048;-57
2023/06/28 01:40:45;;;;;;;10.65;4.57;;;15.00;99.90;;;;;;5078266;28;20067;-57
2023/06/28 01:43:11;;;;;;;7.70;3.72;;;15.00;99.90;;;;;;5078943;28;20040;-57
2023/06/28 01:45:37;;;;;;;11.35;4.47;;;15.00;99.90;;;;;;5079032;28;20047;-57
2023/06/28 01:48:04;;;;;;;10.82;4.32;;;15.00;99.90;;;;;;5078206;28;20059;-56
2023/06/28 01:50:30;;;;;;;8.48;4.03;;;14.90;99.90;;;;;;5079115;28;20036;-57
2023/06/28 01:52:59;;;;;;;15.88;4.80;;;15.00;99.90;;;;;;5077537;28;20406;-55
2023/06/28 01:55:25;;;;;;;9.05;4.18;;;15.00;99.90;;;;;;5078777;28;20047;-57
2023/06/28 01:57:51;;;;;;;11.57;4.63;;;14.90;99.90;;;;;;5078002;28;20048;-57
2023/06/28 02:00:17;;;;;;;11.07;4.47;;;15.00;99.90;;;;;;5078546;28;20090;-57
2023/06/28 02:02:43;;;;;;;10.95;4.63;;;15.00;99.90;;;;;;5078659;28;20083;-56
2023/06/28 02:05:09;;;;;;;12.55;4.35;;;14.90;99.90;;;;;;5078131;28;20040;-57
2023/06/28 02:07:34;;;;;;;12.20;5.40;;;14.90;99.90;;;;;;5078571;28;20058;-57
2023/06/28 02:10:00;;;;;;;11.32;4.97;;;14.80;99.90;;;;;;5076163;28;20116;-57
2023/06/28 02:12:26;;;;;;;12.75;5.10;;;14.80;99.90;;;;;;5078855;28;20037;-57
2023/06/28 02:14:52;;;;;;;14.30;5.50;;;14.80;99.90;;;;;;5077936;28;20104;-57
2023/06/28 02:17:20;;;;;;;10.80;5.63;;;14.90;99.90;;;;;;5077237;28;20054;-57
2023/06/28 02:19:49;;;;;;;10.95;5.65;;;14.90;99.90;;;;;;5078686;28;20100;-57
2023/06/28 02:22:16;;;;;;;13.50;5.47;;;14.90;99.90;;;;;;5078127;28;20045;-57
2023/06/28 02:24:42;;;;;;;11.20;6.05;;;14.90;99.90;;;;;;5078545;28;20036;-56
2023/06/28 02:27:09;;;;;;;13.23;5.75;;;14.80;99.90;;;;;;5077432;28;20435;-57
2023/06/28 02:29:35;;;;;;;14.85;5.95;;;14.80;99.90;;;;;;5078788;28;20044;-57
2023/06/28 02:32:02;;;;;;;13.55;5.95;;;14.80;99.90;;;;;;5077658;28;20036;-56
2023/06/28 02:34:27;;;;;;;13.55;5.97;;;14.80;99.90;;;;;;5080659;28;20063;-57
2023/06/28 02:36:53;;;;;;;14.05;6.53;;;14.80;99.90;;;;;;5081529;28;20036;-57
2023/06/28 02:39:19;;;;;;;13.23;5.80;;;14.80;99.90;;;;;;5079941;28;20059;-57
2023/06/28 02:41:45;;;;;;;11.15;5.50;;;14.90;99.90;;;;;;5081955;28;20041;-56
2023/06/28 02:44:11;;;;;;;14.73;6.13;;;14.90;99.90;;;;;;5080648;28;20074;-57
2023/06/28 02:46:36;;;;;;;12.63;5.55;;;14.90;99.90;;;;;;5081972;28;20119;-57
2023/06/28 02:49:02;;;;;;;10.50;5.53;;;14.90;99.90;;;;;;5081002;28;20037;-57
2023/06/28 02:51:28;;;;;;;13.05;5.60;;;14.90;99.90;;;;;;5081850;28;20048;-57
2023/06/28 02:53:53;;;;;;;15.98;5.88;;;15.00;99.90;;;;;;5081266;28;20049;-56
2023/06/28 02:56:19;;;;;;;11.98;5.55;;;14.90;99.90;;;;;;5080053;28;20051;-57
2023/06/28 02:58:45;;;;;;;10.68;5.20;;;14.90;99.90;;;;;;5081615;28;20044;-57
2023/06/28 03:01:11;;;;;;;11.10;5.13;;;14.90;99.90;;;;;;5080661;28;20403;-57
2023/06/28 03:03:37;;;;;;;10.70;5.80;;;14.80;99.90;;;;;;5081873;28;20066;-57
2023/06/28 03:06:03;;;;;;;13.88;5.63;;;14.80;99.90;;;;;;5080540;28;20157;-57
2023/06/28 03:08:29;;;;;;;11.30;5.20;;;14.80;99.90;;;;;;5081441;28;20475;-57
2023/06/28 03:10:55;;;;;;;12.20;5.20;;;14.80;99.90;;;;;;5081005;28;20083;-57
2023/06/28 03:13:21;;;;;;;10.10;5.60;;;14.70;99.90;;;;;;5081122;28;20045;-57
2023/06/28 03:15:47;;;;;;;14.10;5.78;;;14.70;99.90;;;;;;5081476;28;20131;-57
2023/06/28 03:18:13;;;;;;;10.48;6.05;;;14.70;99.90;;;;;;5080441;28;20569;-57
2023/06/28 03:20:39;;;;;;;10.98;5.38;;;14.70;99.90;;;;;;5078264;28;20021;-57
2023/06/28 03:23:05;;;;;;;12.95;5.35;;;14.80;99.90;;;;;;5071846;28;20045;-56
2023/06/28 03:25:30;;;;;;;12.40;5.25;;;14.90;99.90;;;;;;5074758;28;20596;-57
2023/06/28 03:27:56;;;;;;;11.05;5.72;;;14.80;99.90;;;;;;5060679;28;20037;-56
2023/06/28 03:30:22;;;;;;;12.48;5.30;;;14.90;99.90;;;;;;5060827;28;20055;-57
2023/06/28 03:32:48;;;;;;;9.60;4.85;;;14.90;99.90;;;;;;5061127;28;20110;-57
2023/06/28 03:35:14;;;;;;;9.93;4.88;;;14.90;99.90;;;;;;5060077;28;20497;-56
2023/06/28 03:37:47;;;;;;;12.20;5.43;;;14.90;99.90;;;;;;5060614;28;20044;-56
2023/06/28 03:40:14;;;;;;;9.88;4.88;;;14.90;99.90;;;;;;5059936;28;20057;-57
2023/06/28 03:42:40;;;;;;;11.05;5.20;;;15.00;99.90;;;;;;5060737;28;20041;-57
2023/06/28 03:45:07;;;;;;;11.05;5.10;;;15.00;99.90;;;;;;5059811;28;20071;-57
2023/06/28 03:47:32;;;;;;;12.10;5.00;;;15.00;99.90;;;;;;5060424;28;20045;-57
2023/06/28 03:49:58;;;;;;;10.35;4.65;;;15.00;99.90;;;;;;5060641;28;20052;-57
2023/06/28 03:52:23;;;;;;;12.40;4.38;;;15.00;99.90;;;;;;5059753;28;20076;-57
2023/06/28 03:54:49;;;;;;;9.18;4.60;;;15.00;99.90;;;;;;5060695;28;20044;-57
2023/06/28 03:57:15;;;;;;;9.93;3.95;;;15.00;99.90;;;;;;5059741;28;20053;-57
2023/06/28 03:59:41;;;;;;;9.70;4.45;;;15.00;99.90;;;;;;5060301;28;20084;-57
2023/06/28 04:02:06;;;;;;;11.60;4.85;;;15.00;99.90;;;;;;5059898;28;20048;-58
2023/06/28 04:04:33;;;;;;;9.93;4.68;;;15.00;99.90;;;;;;5060072;28;20070;-58
2023/06/28 04:07:01;;;;;;;9.90;4.60;;;15.00;99.90;;;;;;5060077;28;20488;-58
2023/06/28 04:09:27;;;;;;;8.48;4.43;;;15.00;99.90;;;;;;5059603;28;20416;-58
2023/06/28 04:11:53;;;;;;;11.10;4.45;;;15.10;99.90;;;;;;5059117;28;20060;-58
2023/06/28 04:14:18;;;;;;;9.88;4.07;;;15.10;99.90;;;;;;5059078;28;20108;-58
2023/06/28 04:16:44;;;;;;;9.88;4.47;;;15.10;99.90;;;;;;5060379;28;20041;-58
2023/06/28 04:19:10;;;;;;;10.30;4.90;;;15.10;99.90;;;;;;5059189;28;20048;-57
2023/06/28 04:21:35;;;;;;;9.32;4.65;;;15.10;99.90;;;;;;5060193;28;20041;-58
2023/06/28 04:24:02;;;;;;;10.68;5.57;;;15.10;99.90;;;;;;5059970;28;20485;-57
2023/06/28 04:26:27;;;;;;;9.82;4.72;;;15.00;99.90;;;;;;5059136;28;20056;-58
2023/06/28 04:28:53;;;;;;;13.25;5.57;;;15.10;99.90;;;;;;5059888;28;20424;-58
2023/06/28 04:31:19;;;;;;;9.60;4.45;;;15.10;99.90;;;;;;5058748;28;20041;-57
2023/06/28 04:33:46;;;;;;;8.95;4.88;;;15.10;99.90;;;;;;5059799;28;20029;-57
2023/06/28 04:36:12;;;;;;;8.15;4.20;;;15.00;99.90;;;;;;5058684;28;20127;-54
2023/06/28 04:38:39;;;;;;;9.07;5.03;;;15.00;99.90;;;;;;5059573;28;20045;-58
2023/06/28 04:41:05;;;;;;;10.10;4.22;;;15.00;99.90;;;;;;5059736;28;20404;-55
2023/06/28 04:43:39;;;;;;;7.55;3.92;;;15.00;99.90;;;;;;5058976;28;20039;-57
2023/06/28 04:46:11;;;;;;;7.95;3.83;;;15.00;99.90;;;;;;5059469;28;20049;-58
2023/06/28 04:48:37;;;;;;;9.35;3.88;;;15.10;99.90;;;;;;5057523;28;20044;-57
2023/06/28 04:51:03;;;;;;;9.15;3.63;;;15.00;99.90;;;;;;5068473;28;20045;-57
2023/06/28 04:53:29;;;;;;;9.27;4.60;;;15.10;99.90;;;;;;5064332;28;20160;-57
2023/06/28 04:55:54;;;;;;;7.60;4.25;;;15.10;99.90;;;;;;5060585;28;20033;-57
2023/06/28 04:58:22;;;;;;;8.45;3.22;;;15.20;99.90;;;;;;5063368;28;20052;-57
2023/06/28 05:00:48;;;;;;;7.47;3.08;;;15.10;99.90;;;;;;5061232;28;20056;-57
2023/06/28 05:03:15;;;;;;;6.68;3.13;;;15.20;99.90;;;;;;5066509;28;20049;-57
2023/06/28 05:05:41;;;;;;;9.23;3.50;;;15.30;99.90;;;;;;5054924;28;20052;-57
2023/06/28 05:08:09;;;;;;;7.50;3.22;;;15.30;99.90;;;;;;5055931;28;20056;-57
2023/06/28 05:10:36;;;;;;;7.20;3.70;;;15.30;99.90;;;;;;5055206;28;20091;-57
2023/06/28 05:13:02;;;;;;;8.43;3.90;;;15.30;99.90;;;;;;5055521;28;20819;-57
2023/06/28 05:15:32;;;;;;;8.48;3.70;;;15.20;99.90;;;;;;5057088;28;20068;-57
2023/06/28 05:17:58;;;;;;;8.18;3.55;;;15.20;99.90;;;;;;5075048;28;20053;-57
2023/06/28 05:20:24;;;;;;;7.55;3.55;;;15.20;99.90;;;;;;5075888;28;20052;-57
2023/06/28 05:23:17;;;;;;;9.57;4.18;;;15.30;99.90;;;;;;5067865;28;20105;-57
2023/06/28 05:25:44;;;;;;;8.43;3.35;;;15.40;99.90;;;;;;5060204;28;20037;-57
2023/06/28 05:28:11;;;;;;;8.05;3.45;;;15.40;99.90;;;;;;5055757;28;20068;-57
2023/06/28 05:30:37;;;;;;;7.57;3.85;;;15.40;99.90;;;;;;5055299;28;20850;-57
2023/06/28 05:33:03;;;;;;;7.80;3.40;;;15.40;99.90;;;;;;5060573;28;20049;-57
2023/06/28 05:35:33;;;;;;;10.70;3.90;;;15.40;99.90;;;;;;5064745;28;20037;-57
2023/06/28 05:38:04;;;;;;;9.23;3.90;;;15.40;99.90;;;;;;5055586;28;20056;-57
2023/06/28 05:40:31;;;;;;;7.22;3.60;;;15.40;99.90;;;;;;5053317;28;20512;-56
2023/06/28 05:42:59;;;;;;;6.82;3.75;;;15.40;99.90;;;;;;5055706;28;20059;-57
2023/06/28 05:45:27;;;;;;;7.10;3.40;;;15.50;99.90;;;;;;5055579;28;20087;-57
2023/06/28 05:47:54;;;;;;;10.32;4.50;;;15.50;99.90;;;;;;5054609;28;20056;-57
2023/06/28 05:50:23;;;;;;;8.27;4.15;;;15.60;99.90;;;;;;5055758;28;20084;-57
2023/06/28 05:52:49;;;;;;;10.13;4.97;;;15.60;99.90;;;;;;5054510;28;20041;-57
2023/06/28 05:55:15;;;;;;;8.00;4.55;;;15.60;99.90;;;;;;5055409;28;20097;-57
2023/06/28 05:57:41;;;;;;;8.60;4.45;;;15.60;99.90;;;;;;5063884;28;20068;-57
2023/06/28 06:00:09;;;;;;;8.20;4.43;;;15.60;99.90;;;;;;5074716;28;20063;-57
2023/06/28 06:02:35;;;;;;;9.77;4.97;;;15.60;99.90;;;;;;5075482;28;20087;-56
2023/06/28 06:05:03;;;;;;;11.07;4.78;;;15.60;99.90;;;;;;5075799;28;20056;-57
2023/06/28 06:07:29;;;;;;;9.38;4.38;;;15.70;99.90;;;;;;5078651;28;20062;-57
2023/06/28 06:09:55;;;;;;;16.27;5.40;;;15.60;99.90;;;;;;5080364;28;20192;-57
2023/06/28 06:12:21;;;;;;;10.18;4.68;;;15.70;99.90;;;;;;5080399;28;20048;-56
2023/06/28 06:14:50;;;;;;;10.68;5.22;;;15.70;99.90;;;;;;5081639;28;20053;-56
2023/06/28 06:17:19;;;;;;;12.68;5.07;;;15.80;99.90;;;;;;5082194;28;20040;-59
2023/06/28 06:19:44;;;;;;;8.90;4.82;;;15.80;99.90;;;;;;5082321;28;20055;-57
2023/06/28 06:22:10;;;;;;;8.25;4.93;;;15.90;99.90;;;;;;5081425;28;20131;-57
2023/06/28 06:24:36;;;;;;;11.00;4.95;;;16.00;99.90;;;;;;5082397;28;20067;-57
2023/06/28 06:27:03;;;;;;;8.38;5.35;;;15.90;99.90;;;;;;5080832;28;20048;-58
2023/06/28 06:29:29;;;;;;;11.23;5.13;;;15.90;99.90;;;;;;5078034;28;20037;-57
2023/06/28 06:31:55;;;;;;;11.52;5.28;;;16.00;99.90;;;;;;5077964;28;20041;-57
2023/06/28 06:34:21;;;;;;;10.68;5.90;;;15.90;99.90;;;;;;5078761;28;20063;-57
2023/06/28 06:36:46;;;;;;;12.60;5.78;;;16.00;99.90;;;;;;5078399;28;20055;-56
2023/06/28 06:39:12;;;;;;;14.02;6.07;;;15.90;99.90;;;;;;5078210;28;20108;-57
2023/06/28 06:41:37;;;;;;;8.52;4.88;;;15.80;99.90;;;;;;5078362;28;20097;-57
2023/06/28 06:44:04;;;;;;;9.95;5.18;;;15.80;99.90;;;;;;5077544;28;20040;-57
2023/06/28 06:46:29;;;;;;;10.52;5.57;;;15.80;99.90;;;;;;5078598;28;20048;-57
2023/06/28 06:48:55;;;;;;;13.20;5.55;;;15.70;99.90;;;;;;5077588;28;20055;-57
2023/06/28 06:51:21;;;;;;;13.02;6.00;;;15.80;99.90;;;;;;5078673;28;20581;-55
2023/06/28 06:53:47;;;;;;;13.43;6.75;;;15.70;99.90;;;;;;5077829;28;20047;-57
2023/06/28 06:56:13;;;;;;;10.93;5.88;;;15.80;99.90;;;;;;5078104;28;20044;-57
2023/06/28 06:58:38;;;;;;;14.55;6.30;;;15.90;99.90;;;;;;5076742;28;20185;-58
2023/06/28 07:01:04;;;;;;;14.60;7.00;;;15.90;99.90;;;;;;5077438;28;20048;-58
2023/06/28 07:03:30;;;;;;;13.15;6.82;;;15.90;99.90;;;;;;5078416;28;20048;-58
2023/06/28 07:05:55;;;;;;;11.55;6.38;;;15.90;99.90;;;;;;5075566;28;20592;-58
2023/06/28 07:08:21;;;;;;;15.02;8.10;;;15.90;99.90;;;;;;5078024;28;20173;-58
2023/06/28 07:10:47;;;;;;;14.23;6.97;;;15.90;99.90;;;;;;5077668;28;20080;-58
2023/06/28 07:13:14;;;;;;;14.68;6.45;;;15.80;99.90;;;;;;5077696;28;20063;-57
2023/06/28 07:15:40;;;;;;;18.58;7.45;;;15.80;99.90;;;;;;5078109;28;20067;-57
2023/06/28 07:18:06;;;;;;;13.88;7.10;;;15.80;99.90;;;;;;5076465;28;20044;-57
2023/06/28 07:20:31;;;;;;;18.25;7.40;;;15.90;99.90;;;;;;5078643;28;20046;-58
2023/06/28 07:22:57;;;;;;;11.77;6.45;;;16.00;99.90;;;;;;5078923;28;20048;-57
2023/06/28 07:25:23;;;;;;;13.00;6.53;;;15.90;99.90;;;;;;5081196;28;20055;-57
2023/06/28 07:27:48;;;;;;;16.67;7.43;;;16.10;99.90;;;;;;5080709;28;20543;-57
2023/06/28 07:30:14;;;;;;;15.73;7.15;;;16.10;99.90;;;;;;5081009;28;20055;-57
2023/06/28 07:32:40;;;;;;;14.65;7.15;;;16.00;99.90;;;;;;5081121;28;20067;-58
2023/06/28 07:35:06;;;;;;;14.48;7.07;;;15.90;99.90;;;;;;5080042;28;20041;-57
2023/06/28 07:37:32;;;;;;;10.70;6.68;;;15.90;99.90;;;;;;5080262;28;20043;-57
2023/06/28 07:39:58;;;;;;;15.65;7.85;;;15.90;99.90;;;;;;5078646;28;20040;-58
2023/06/28 07:42:24;;;;;;;14.85;6.88;;;15.80;99.90;;;;;;5079595;28;20044;-57
2023/06/28 07:44:50;;;;;;;16.67;7.80;;;15.80;99.90;;;;;;5079980;28;20044;-58
2023/06/28 07:47:16;;;;;;;14.90;7.22;;;15.90;99.90;;;;;;5080806;28;20055;-58
2023/06/28 07:49:41;;;;;;;15.27;7.65;;;16.00;99.90;;;;;;5080962;28;20100;-58
2023/06/28 07:52:07;;;;;;;12.48;7.18;;;16.00;99.90;;;;;;5079937;28;20048;-58
2023/06/28 07:54:33;;;;;;;16.95;8.23;;;16.20;99.90;;;;;;5080683;28;20068;-58
2023/06/28 07:56:59;;;;;;;15.32;7.55;;;16.20;99.90;;;;;;5079554;28;20048;-58
2023/06/28 07:59:25;;;;;;;12.88;7.47;;;16.20;99.90;;;;;;5080325;28;20557;-58
2023/06/28 08:01:50;;;;;;;15.55;7.13;;;16.00;99.90;;;;;;5079505;28;20087;-57
2023/06/28 08:04:16;;;;;;;13.98;7.70;;;16.10;99.90;;;;;;5080227;28;20081;-58
2023/06/28 08:06:43;;;;;;;16.85;7.68;;;16.10;99.90;;;;;;5079979;28;20049;-57
2023/06/28 08:09:09;;;;;;;13.82;7.57;;;16.30;99.90;;;;;;5079652;28;20052;-58
2023/06/28 08:11:35;;;;;;;16.73;8.68;;;16.40;99.90;;;;;;5080523;28;20052;-58
2023/06/28 08:14:01;;;;;;;14.45;7.10;;;16.30;99.90;;;;;;5079116;28;20044;-58
2023/06/28 08:16:27;;;;;;;17.73;8.13;;;16.20;99.90;;;;;;5080254;28;20050;-58
2023/06/28 08:18:53;;;;;;;15.65;7.40;;;16.30;99.90;;;;;;5078849;28;20377;-58
2023/06/28 08:21:18;;;;;;;14.80;7.57;;;16.40;99.90;;;;;;5080369;28;20028;-57
2023/06/28 08:23:44;;;;;;;14.43;7.40;;;16.40;99.90;;;;;;5079748;28;20086;-56
2023/06/28 08:26:10;;;;;;;13.88;7.63;;;16.40;99.90;;;;;;5079513;28;20064;-57
2023/06/28 08:28:35;;;;;;;18.20;7.82;;;16.50;99.90;;;;;;5078648;28;20515;-57
2023/06/28 08:31:01;;;;;;;15.55;7.47;;;16.50;99.90;;;;;;5078730;28;20045;-57
2023/06/28 08:33:27;;;;;;;13.18;8.05;;;16.50;99.90;;;;;;5079625;28;20056;-57
2023/06/28 08:35:52;;;;;;;17.80;7.07;;;16.40;99.90;;;;;;5078690;28;20044;-57
2023/06/28 08:38:18;;;;;;;14.30;7.53;;;16.40;99.90;;;;;;5079415;28;20387;-57
2023/06/28 08:40:44;;;;;;;13.70;7.63;;;16.40;99.90;;;;;;5079073;28;20051;-56
2023/06/28 08:43:15;;;;;;;21.60;9.48;;;16.50;99.90;;;;;;5079566;28;20028;-57
2023/06/28 08:45:43;;;;;;;17.80;7.78;;;16.50;99.90;;;;;;5079228;28;20053;-57
2023/06/28 08:48:09;;;;;;;14.20;7.93;;;16.60;99.90;;;;;;5073700;28;20041;-57
2023/06/28 08:50:37;;;;;;;16.90;7.85;;;16.60;99.90;;;;;;5079614;28;20086;-57
2023/06/28 08:53:05;;;;;;;15.20;8.60;;;16.60;99.90;;;;;;5077529;28;20093;-57
2023/06/28 08:55:31;;;;;;;16.63;8.60;;;16.60;99.90;;;;;;5075012;28;20084;-57
2023/06/28 08:57:57;;;;;;;15.95;8.90;;;16.60;99.90;;;;;;5065293;28;20044;-57
2023/06/28 09:00:23;;;;;;;18.67;9.48;;;16.60;99.90;;;;;;5069978;28;20084;-57
2023/06/28 09:02:50;;;;;;;15.73;8.82;;;16.50;99.90;;;;;;5057318;28;20095;-57
2023/06/28 09:05:18;;;;;;;15.35;9.25;;;16.50;99.90;;;;;;5057869;28;20084;-57
2023/06/28 09:07:46;;;;;;;14.63;8.32;;;16.50;99.90;;;;;;5058639;28;20184;-57
2023/06/28 09:10:11;;;;;;;15.38;8.80;;;16.50;99.90;;;;;;5057821;28;20800;-57
2023/06/28 09:12:38;;;;;;;18.27;9.20;;;16.40;99.90;;;;;;5058930;28;20425;-57
2023/06/28 09:15:04;;;;;;;18.02;9.40;;;16.50;99.90;;;;;;5058391;28;20092;-56
2023/06/28 09:17:30;;;;;;;18.63;9.05;;;16.60;99.90;;;;;;5058579;28;20048;-57
2023/06/28 09:20:02;;;;;;;16.33;10.00;;;16.70;99.90;;;;;;5058392;28;20056;-56
2023/06/28 09:22:29;;;;;;;17.38;9.32;;;16.50;99.90;;;;;;5057164;28;20106;-57
2023/06/28 09:24:54;;;;;;;18.95;9.60;;;16.50;99.90;;;;;;5057933;28;20101;-57
2023/06/28 09:27:20;;;;;;;18.90;10.50;;;16.60;99.90;;;;;;5057762;28;20080;-57
2023/06/28 09:29:59;;;;;;;17.58;9.40;;;16.60;99.90;;;;;;5058853;28;20447;-57
2023/06/28 09:32:37;;;;;;;15.50;9.85;;;16.50;99.90;;;;;;5061613;28;20037;-57
2023/06/28 09:35:08;;;;;;;17.17;10.60;;;16.60;99.90;;;;;;5068694;28;20037;-57
2023/06/28 09:37:34;;;;;;;16.95;9.93;;;16.70;99.90;;;;;;5058962;28;20049;-56
2023/06/28 09:40:00;;;;;;;18.27;11.07;;;16.70;99.90;;;;;;5057371;28;20045;-57
2023/06/28 09:42:25;;;;;;;15.75;10.00;;;16.80;99.90;;;;;;5058336;28;20102;-57
2023/06/28 09:44:57;;;;;;;16.92;9.82;;;16.80;99.90;;;;;;5070900;28;20046;-57
2023/06/28 09:47:31;;;;;;;15.60;10.30;;;16.70;99.90;;;;;;5079105;28;20041;-56
2023/06/28 09:50:00;;;;;;;16.20;10.02;;;16.60;99.90;;;;;;5082476;28;20045;-57
2023/06/28 09:52:26;;;;;;;17.40;10.35;;;16.70;99.90;;;;;;5080692;28;20068;-57
2023/06/28 09:54:52;;;;;;;17.85;10.90;;;16.80;99.90;;;;;;5075202;28;20059;-57
2023/06/28 09:57:18;;;;;;;17.70;10.55;;;16.70;99.90;;;;;;5072230;28;20101;-57
2023/06/28 09:59:45;;;;;;;17.35;9.68;;;16.90;99.90;;;;;;5075246;28;20083;-57
2023/06/28 10:02:14;;;;;;;16.60;10.25;;;16.90;99.90;;;;;;5075033;28;20052;-57
2023/06/28 10:04:40;;;;;;;16.27;10.38;;;17.00;99.90;;;;;;5062425;28;20049;-57
2023/06/28 10:07:06;;;;;;;17.40;11.63;;;17.00;99.90;;;;;;5062414;28;20045;-57
2023/06/28 10:09:41;;;;;;;17.98;10.90;;;17.10;99.90;;;;;;5061469;28;20116;-57
2023/06/28 10:12:20;;;;;;;16.50;10.10;;;17.10;99.90;;;;;;5064748;28;20040;-57
2023/06/28 10:14:55;;;;;;;17.25;11.48;;;17.20;99.90;;;;;;5072956;28;20108;-57
2023/06/28 10:17:21;;;;;;;16.13;10.55;;;17.10;99.90;;;;;;5077849;28;20118;-57
2023/06/28 10:19:49;;;;;;;16.85;11.35;;;17.10;99.90;;;;;;5072140;28;20048;-57
2023/06/28 10:22:15;;;;;;;15.95;10.80;;;17.10;99.90;;;;;;5072916;28;20040;-57
2023/06/28 10:24:42;;;;;;;17.52;10.85;;;17.10;99.90;;;;;;5071809;28;20063;-57
2023/06/28 10:27:09;;;;;;;18.40;10.48;;;17.10;99.90;;;;;;5060133;28;20089;-57
2023/06/28 10:29:36;;;;;;;15.90;10.07;;;17.10;99.90;;;;;;5074332;28;20044;-57
2023/06/28 10:32:02;;;;;;;14.48;10.02;;;17.20;99.90;;;;;;5081173;28;20044;-57
2023/06/28 10:34:29;;;;;;;17.50;11.25;;;17.20;99.90;;;;;;5081650;28;20079;-57
2023/06/28 10:36:56;;;;;;;13.95;9.95;;;17.10;99.90;;;;;;5081845;28;20044;-57
2023/06/28 10:39:22;;;;;;;14.45;9.80;;;17.10;99.90;;;;;;5067487;28;20057;-57
2023/06/28 10:41:58;;;;;;;15.73;9.90;;;17.10;99.90;;;;;;5071986;28;20049;-57
2023/06/28 10:44:23;;;;;;;16.33;9.98;;;17.20;99.90;;;;;;5062601;28;20040;-57
2023/06/28 10:47:11;;;;;;;13.38;9.43;;;17.20;99.90;;;;;;5081148;28;20047;-57
2023/06/28 10:49:40;;;;;;;13.88;9.60;;;17.10;99.90;;;;;;5078288;28;20508;-56
2023/06/28 10:52:17;;;;;;;13.88;10.07;;;17.10;99.90;;;;;;5080303;28;20082;-57
2023/06/28 10:54:45;;;;;;;14.68;9.90;;;17.20;99.90;;;;;;5078305;28;20051;-55
2023/06/28 10:57:11;;;;;;;17.45;10.05;;;17.20;99.90;;;;;;5080354;28;20116;-57
2023/06/28 10:59:46;;;;;;;15.43;9.55;;;17.40;99.90;;;;;;5081378;28;20095;-56
2023/06/28 11:02:12;;;;;;;15.98;10.70;;;17.40;99.90;;;;;;5080810;28;20079;-57
2023/06/28 11:04:54;;;;;;;14.45;10.40;;;17.40;99.90;;;;;;5075809;28;20048;-57
2023/06/28 11:07:21;;;;;;;15.60;10.63;;;17.20;99.90;;;;;;5067497;28;20083;-57
2023/06/28 11:10:16;;;;;;;14.95;10.65;;;17.20;99.90;;;;;;5075955;28;20049;-57
2023/06/28 11:12:46;;;;;;;15.63;10.35;;;17.20;99.90;;;;;;5080080;28;20052;-57
2023/06/28 11:15:13;;;;;;;15.75;9.82;;;17.20;99.90;;;;;;5080292;28;20051;-57
2023/06/28 11:17:39;;;;;;;16.00;11.13;;;17.20;99.90;;;;;;5080100;28;20064;-58
2023/06/28 11:20:11;;;;;;;16.10;10.60;;;17.20;99.90;;;;;;5080933;28;20108;-58
2023/06/28 11:22:53;;;;;;;16.70;11.07;;;17.20;99.90;;;;;;5080185;28;20075;-57
2023/06/28 11:25:28;;;;;;;16.23;11.23;;;17.20;99.90;;;;;;5069400;28;20040;-57
2023/06/28 11:27:56;;;;;;;19.10;12.52;;;17.30;99.90;;;;;;5076248;28;20520;-55
2023/06/28 11:30:50;;;;;;;17.73;11.10;;;17.30;99.90;;;;;;5066429;28;20053;-57
2023/06/28 11:33:16;;;;;;;19.10;11.35;;;17.30;99.90;;;;;;5067744;28;20087;-57
2023/06/28 11:35:42;;;;;;;20.15;11.90;;;17.30;99.90;;;;;;5065447;28;20041;-57
2023/06/28 11:38:10;;;;;;;19.33;12.15;;;17.30;99.90;;;;;;5068069;28;20108;-57
2023/06/28 11:40:36;;;;;;;21.13;12.20;;;17.30;99.90;;;;;;5071271;28;20053;-57
2023/06/28 11:43:03;;;;;;;19.70;11.77;;;17.40;99.90;;;;;;5060150;28;20224;-58
2023/06/28 11:45:31;;;;;;;15.48;11.38;;;17.30;99.90;;;;;;5060659;28;20049;-57
2023/06/28 11:47:57;;;;;;;17.60;12.07;;;17.30;99.90;;;;;;5055168;28;20076;-57
2023/06/28 11:50:23;;;;;;;20.35;13.23;;;17.40;99.90;;;;;;5057876;28;20056;-58
2023/06/28 11:52:50;;;;;;;22.80;13.82;;;17.30;99.90;;;;;;5059311;28;20048;-58
2023/06/28 11:55:15;;;;;;;20.23;14.07;;;17.40;99.90;;;;;;5070203;28;20056;-57
2023/06/28 11:57:43;;;;;;;21.00;13.43;;;17.40;99.90;;;;;;5056253;28;20095;-57
2023/06/28 12:00:10;;;;;;;21.55;12.95;;;17.50;99.90;;;;;;5056368;28;20048;-57
2023/06/28 12:02:49;;;;;;;20.27;13.85;;;17.40;99.90;;;;;;5057249;28;20509;-57
2023/06/28 12:05:20;;;;;;;21.77;13.93;;;17.40;99.90;;;;;;5055489;28;20045;-58
2023/06/28 12:07:47;;;;;;;22.38;15.13;;;17.40;99.90;;;;;;5057041;28;20064;-57
2023/06/28 12:10:14;;;;;;;21.88;14.70;;;17.50;99.90;;;;;;5056513;28;20052;-57
2023/06/28 12:12:41;;;;;;;20.17;15.43;;;17.40;99.90;;;;;;5057841;28;20275;-57
2023/06/28 12:15:11;;;;;;;24.15;16.42;;;17.60;99.90;;;;;;5059329;28;20116;-57
2023/06/28 12:17:41;;;;;;;20.55;14.77;;;17.60;99.90;;;;;;5059252;28;20049;-57
2023/06/28 12:20:09;;;;;;;22.38;14.77;;;17.60;99.90;;;;;;5058161;28;20075;-57
2023/06/28 12:22:46;;;;;;;19.33;14.52;;;17.60;99.90;;;;;;5058216;28;20052;-57
2023/06/28 12:25:12;;;;;;;23.10;15.57;;;17.70;99.90;;;;;;5058303;28;20672;-58
2023/06/28 12:27:41;;;;;;;18.67;14.00;;;17.60;99.90;;;;;;5058731;28;20072;-57
2023/06/28 12:30:12;;;;;;;22.83;14.95;;;17.60;99.90;;;;;;5059319;28;20090;-57
2023/06/28 12:32:47;;;;;;;20.67;15.15;;;17.60;99.90;;;;;;5059672;28;20480;-57
2023/06/28 12:35:26;;;;;;;18.55;13.10;;;17.60;99.90;;;;;;5066372;28;20037;-57